Time,TemperatureF,DewpointF,PressureIn,WindDirection,WindDirectionDegrees,WindSpeedMPH,WindSpeedGustMPH,Humidity,HourlyPrecipIn,Conditions,Clouds,dailyrainin,SoftwareType,DateUTC
2013-06-07 00:00:00,61.0,47.5,30.06,NW,315,0.0,7.8,61,0.00,,,0.00,open2300-1.11,2013-06-07 07:00:00,
2013-06-07 00:10:00,60.8,47.3,30.06,NNW,337,0.0,7.8,61,0.00,,,0.00,open2300-1.11,2013-06-07 07:10:00,
2013-06-07 00:20:00,60.4,47.0,30.06,NNW,337,0.0,0.0,61,0.00,,,0.00,open2300-1.11,2013-06-07 07:20:00,
2013-06-07 00:30:00,59.9,46.9,30.06,NW,315,0.0,0.0,62,0.00,,,0.00,open2300-1.11,2013-06-07 07:30:00,
2013-06-07 00:40:00,59.7,46.7,30.06,WNW,292,0.0,0.0,62,0.00,,,0.00,open2300-1.11,2013-06-07 07:40:00,
2013-06-07 00:50:00,58.8,46.2,30.06,WNW,292,0.0,0.0,63,0.00,,,0.00,open2300-1.11,2013-06-07 07:50:00,
2013-06-07 01:10:00,58.6,47.3,30.07,WNW,292,7.2,7.2,66,0.00,,,0.00,open2300-1.11,2013-06-07 08:10:00,
2013-06-07 01:20:00,58.6,47.3,30.07,West,270,0.0,7.8,66,0.00,,,0.00,open2300-1.11,2013-06-07 08:20:00,
2013-06-07 01:30:00,58.1,46.8,30.07,NW,315,0.0,2.5,66,0.00,,,0.00,open2300-1.11,2013-06-07 08:30:00,
2013-06-07 01:40:00,57.7,46.8,30.07,NW,315,0.0,0.0,67,0.00,,,0.00,open2300-1.11,2013-06-07 08:40:00,
2013-06-07 01:50:00,57.4,46.5,30.07,NNW,337,0.0,0.0,67,0.00,,,0.00,open2300-1.11,2013-06-07 08:50:00,
2013-06-07 02:10:00,56.8,46.3,30.08,NNW,337,0.0,0.0,68,0.00,,,0.00,open2300-1.11,2013-06-07 09:10:00,
2013-06-07 02:20:00,56.5,46.4,30.08,NNE,22,0.0,0.0,69,0.00,,,0.00,open2300-1.11,2013-06-07 09:20:00,
2013-06-07 02:30:00,55.9,45.9,30.07,NNE,22,0.0,0.0,69,0.00,,,0.00,open2300-1.11,2013-06-07 09:30:00,
2013-06-07 02:40:00,55.6,45.6,30.07,NNE,22,0.0,0.0,69,0.00,,,0.00,open2300-1.11,2013-06-07 09:40:00,
2013-06-07 02:50:00,55.2,45.3,30.07,NNE,22,0.0,0.0,69,0.00,,,0.00,open2300-1.11,2013-06-07 09:50:00,
2013-06-07 03:00:00,55.2,45.7,30.08,NNE,22,0.0,0.0,70,0.00,,,0.00,open2300-1.11,2013-06-07 10:00:00,
2013-06-07 03:10:00,54.7,45.5,30.08,NNE,22,0.0,0.0,71,0.00,,,0.00,open2300-1.11,2013-06-07 10:10:00,
2013-06-07 03:20:00,54.7,45.8,30.08,WNW,292,0.0,0.0,72,0.00,,,0.00,open2300-1.11,2013-06-07 10:20:00,
2013-06-07 03:30:00,54.3,45.5,30.09,WNW,292,0.0,0.0,72,0.00,,,0.00,open2300-1.11,2013-06-07 10:30:00,
2013-06-07 03:40:00,54.1,45.7,30.09,WNW,292,0.0,0.0,73,0.00,,,0.00,open2300-1.11,2013-06-07 10:40:00,
2013-06-07 03:50:00,54.3,45.8,30.10,WNW,292,0.0,0.0,73,0.00,,,0.00,open2300-1.11,2013-06-07 10:50:00,
2013-06-07 04:00:00,53.8,45.7,30.09,WNW,292,0.0,0.0,74,0.00,,,0.00,open2300-1.11,2013-06-07 11:00:00,
2013-06-07 04:10:00,53.4,45.3,30.09,WNW,292,0.0,0.0,74,0.00,,,0.00,open2300-1.11,2013-06-07 11:10:00,
2013-06-07 04:20:00,52.9,45.2,30.09,WNW,292,0.0,0.0,75,0.00,,,0.00,open2300-1.11,2013-06-07 11:20:00,
2013-06-07 04:30:00,52.7,45.4,30.10,WNW,292,0.0,0.0,76,0.00,,,0.00,open2300-1.11,2013-06-07 11:30:00,
2013-06-07 04:40:00,52.3,45.0,30.10,WNW,292,0.0,0.0,76,0.00,,,0.00,open2300-1.11,2013-06-07 11:40:00,
2013-06-07 04:50:00,52.3,45.0,30.10,NW,315,0.0,0.0,76,0.00,,,0.00,open2300-1.11,2013-06-07 11:50:00,
2013-06-07 05:00:00,52.0,44.7,30.10,NW,315,0.0,0.0,76,0.00,,,0.00,open2300-1.11,2013-06-07 12:00:00,
2013-06-07 05:10:00,51.6,44.7,30.11,NW,315,0.0,0.0,77,0.00,,,0.00,open2300-1.11,2013-06-07 12:10:00,
2013-06-07 05:20:00,51.1,44.1,30.11,NW,315,0.0,0.0,77,0.00,,,0.00,open2300-1.11,2013-06-07 12:20:00,
2013-06-07 05:30:00,50.7,43.8,30.11,NW,315,0.0,0.0,77,0.00,,,0.00,open2300-1.11,2013-06-07 12:30:00,
2013-06-07 05:40:00,50.5,43.9,30.11,NW,315,0.0,0.0,78,0.00,,,0.00,open2300-1.11,2013-06-07 12:40:00,
2013-06-07 05:50:00,50.5,43.9,30.12,NW,315,0.0,0.0,78,0.00,,,0.00,open2300-1.11,2013-06-07 12:50:00,
2013-06-07 06:00:00,50.5,43.9,30.11,NW,315,0.0,0.0,78,0.00,,,0.00,open2300-1.11,2013-06-07 13:00:00,
2013-06-07 06:10:00,52.2,45.9,30.12,NW,315,0.0,0.0,79,0.00,,,0.00,open2300-1.11,2013-06-07 13:10:00,
2013-06-07 06:20:00,53.8,47.1,30.11,NW,315,0.0,0.0,78,0.00,,,0.00,open2300-1.11,2013-06-07 13:20:00,
2013-06-07 06:30:00,55.8,48.2,30.12,NW,315,0.0,0.0,76,0.00,,,0.00,open2300-1.11,2013-06-07 13:30:00,
2013-06-07 06:40:00,57.4,49.1,30.12,NW,315,0.0,0.0,74,0.00,,,0.00,open2300-1.11,2013-06-07 13:40:00,
2013-06-07 06:50:00,58.8,49.5,30.12,NW,315,0.0,0.0,71,0.00,,,0.00,open2300-1.11,2013-06-07 13:50:00,
2013-06-07 07:00:00,60.1,49.1,30.12,NW,315,0.0,0.0,67,0.00,,,0.00,open2300-1.11,2013-06-07 14:00:00,
2013-06-07 07:10:00,61.5,49.7,30.12,North,0,0.0,0.0,65,0.00,,,0.00,open2300-1.11,2013-06-07 14:10:00,
2013-06-07 07:20:00,61.5,49.2,30.12,NW,315,0.0,0.0,64,0.00,,,0.00,open2300-1.11,2013-06-07 14:20:00,
2013-06-07 07:30:00,62.8,49.5,30.12,NW,315,0.0,0.0,62,0.00,,,0.00,open2300-1.11,2013-06-07 14:30:00,
2013-06-07 07:40:00,63.0,49.3,30.12,West,270,0.0,0.0,61,0.00,,,0.00,open2300-1.11,2013-06-07 14:40:00,
2013-06-07 07:50:00,63.1,49.0,30.12,NW,315,0.0,2.5,60,0.00,,,0.00,open2300-1.11,2013-06-07 14:50:00,
2013-06-07 08:00:00,63.1,49.0,30.12,North,0,0.0,2.7,60,0.00,,,0.00,open2300-1.11,2013-06-07 15:00:00,
2013-06-07 08:10:00,64.4,49.2,30.12,NNE,22,0.0,0.0,58,0.00,,,0.00,open2300-1.11,2013-06-07 15:10:00,
2013-06-07 08:20:00,66.2,50.0,30.12,NE,45,0.0,0.0,56,0.00,,,0.00,open2300-1.11,2013-06-07 15:20:00,
2013-06-07 08:30:00,66.7,50.0,30.12,NE,45,0.0,0.0,55,0.00,,,0.00,open2300-1.11,2013-06-07 15:30:00,
2013-06-07 08:40:00,68.2,50.4,30.12,NE,45,0.0,0.0,53,0.00,,,0.00,open2300-1.11,2013-06-07 15:40:00,
2013-06-07 08:50:00,68.9,50.0,30.12,ESE,112,0.0,0.0,51,0.00,,,0.00,open2300-1.11,2013-06-07 15:50:00,
2013-06-07 09:00:00,70.3,50.2,30.12,ESE,112,0.0,0.0,49,0.00,,,0.00,open2300-1.11,2013-06-07 16:00:00,
2013-06-07 09:10:00,71.2,51.1,30.12,NE,45,0.0,0.0,49,0.00,,,0.00,open2300-1.11,2013-06-07 16:10:00,
2013-06-07 09:20:00,71.4,50.6,30.12,WSW,247,0.0,0.0,48,0.00,,,0.00,open2300-1.11,2013-06-07 16:20:00,
2013-06-07 09:30:00,70.7,49.4,30.12,WSW,247,0.0,0.0,47,0.00,,,0.00,open2300-1.11,2013-06-07 16:30:00,
2013-06-07 09:40:00,71.1,49.7,30.12,SW,225,0.0,0.0,47,0.00,,,0.00,open2300-1.11,2013-06-07 16:40:00,
2013-06-07 09:50:00,71.1,49.1,30.12,West,270,0.0,5.1,46,0.00,,,0.00,open2300-1.11,2013-06-07 16:50:00,
2013-06-07 10:00:00,70.9,49.0,30.12,NW,315,0.0,0.0,46,0.00,,,0.00,open2300-1.11,2013-06-07 17:00:00,
2013-06-07 10:10:00,70.9,49.0,30.12,North,0,0.0,0.0,46,0.00,,,0.00,open2300-1.11,2013-06-07 17:10:00,
2013-06-07 10:20:00,70.9,47.8,30.12,South,180,0.0,0.0,44,0.00,,,0.00,open2300-1.11,2013-06-07 17:20:00,
2013-06-07 10:30:00,73.0,49.1,30.12,SE,135,0.0,0.0,43,0.00,,,0.00,open2300-1.11,2013-06-07 17:30:00,
2013-06-07 10:40:00,73.8,48.6,30.12,NNW,337,0.0,0.0,41,0.00,,,0.00,open2300-1.11,2013-06-07 17:40:00,
2013-06-07 10:50:00,73.8,48.6,30.12,NNE,22,0.0,0.0,41,0.00,,,0.00,open2300-1.11,2013-06-07 17:50:00,
2013-06-07 11:00:00,74.8,49.0,30.12,North,0,0.0,4.2,40,0.00,,,0.00,open2300-1.11,2013-06-07 18:00:00,
2013-06-07 11:10:00,74.8,48.2,30.12,WNW,292,0.0,1.6,39,0.00,,,0.00,open2300-1.11,2013-06-07 18:10:00,
2013-06-07 11:40:00,77.7,48.5,30.11,ENE,67,4.2,4.2,36,0.00,,,0.00,open2300-1.11,2013-06-07 18:40:00,
2013-06-07 11:50:00,78.6,50.0,30.11,SE,135,0.0,4.2,37,0.00,,,0.00,open2300-1.11,2013-06-07 18:50:00,
2013-06-07 12:00:00,79.5,50.1,30.11,ESE,112,0.0,0.0,36,0.00,,,0.00,open2300-1.11,2013-06-07 19:00:00,
2013-06-07 12:10:00,80.1,51.3,30.11,NE,45,0.0,2.0,37,0.00,,,0.00,open2300-1.11,2013-06-07 19:10:00,
2013-06-07 12:20:00,79.9,50.4,30.11,WNW,292,0.0,2.0,36,0.00,,,0.00,open2300-1.11,2013-06-07 19:20:00,
2013-06-07 12:30:00,78.6,48.5,30.11,WSW,247,0.0,7.4,35,0.00,,,0.00,open2300-1.11,2013-06-07 19:30:00,
2013-06-07 12:40:00,78.6,46.9,30.11,West,270,0.0,4.0,33,0.00,,,0.00,open2300-1.11,2013-06-07 19:40:00,
2013-06-07 12:50:00,78.4,46.0,30.11,NNW,337,0.0,4.5,32,0.00,,,0.00,open2300-1.11,2013-06-07 19:50:00,
2013-06-07 13:00:00,80.2,46.8,30.10,ESE,112,0.0,1.3,31,0.00,,,0.00,open2300-1.11,2013-06-07 20:00:00,
2013-06-07 13:10:00,82.0,48.3,30.10,East,90,0.0,2.7,31,0.00,,,0.00,open2300-1.11,2013-06-07 20:10:00,
2013-06-07 13:20:00,82.8,49.0,30.10,NNW,337,0.0,0.0,31,0.00,,,0.00,open2300-1.11,2013-06-07 20:20:00,
2013-06-07 13:30:00,83.3,49.4,30.10,SSE,157,0.0,0.9,31,0.00,,,0.00,open2300-1.11,2013-06-07 20:30:00,
2013-06-07 13:40:00,84.2,49.5,30.10,NNW,337,3.6,4.0,30,0.00,,,0.00,open2300-1.11,2013-06-07 20:40:00,
2013-06-07 13:50:00,83.1,48.5,30.10,NNE,22,2.0,5.1,30,0.00,,,0.00,open2300-1.11,2013-06-07 20:50:00,
2013-06-07 14:00:00,82.9,49.1,30.10,NE,45,0.0,7.6,31,0.00,,,0.00,open2300-1.11,2013-06-07 21:00:00,
2013-06-07 14:10:00,82.2,50.0,30.09,NNW,337,0.0,6.7,33,0.00,,,0.00,open2300-1.11,2013-06-07 21:10:00,
2013-06-07 14:20:00,81.7,50.4,30.09,NNW,337,0.0,3.4,34,0.00,,,0.00,open2300-1.11,2013-06-07 21:20:00,
2013-06-07 14:30:00,81.7,51.2,30.09,NNW,337,0.0,5.1,35,0.00,,,0.00,open2300-1.11,2013-06-07 21:30:00,
2013-06-07 14:40:00,82.0,51.5,30.09,ENE,67,0.0,8.1,35,0.00,,,0.00,open2300-1.11,2013-06-07 21:40:00,
2013-06-07 14:50:00,82.0,51.5,30.08,North,0,0.0,8.3,35,0.00,,,0.00,open2300-1.11,2013-06-07 21:50:00,
2013-06-07 15:00:00,81.7,52.0,30.08,NW,315,0.0,8.3,36,0.00,,,0.00,open2300-1.11,2013-06-07 22:00:00,
2013-06-07 15:10:00,82.0,52.3,30.08,NNE,22,4.9,8.9,36,0.00,,,0.00,open2300-1.11,2013-06-07 22:10:00,
2013-06-07 15:30:00,82.4,52.6,30.08,NNE,22,1.8,6.9,36,0.00,,,0.00,open2300-1.11,2013-06-07 22:30:00,
2013-06-07 15:40:00,82.9,53.1,30.08,North,0,0.0,6.0,36,0.00,,,0.00,open2300-1.11,2013-06-07 22:40:00,
2013-06-07 15:50:00,83.1,54.0,30.08,West,270,5.6,5.6,37,0.00,,,0.00,open2300-1.11,2013-06-07 22:50:00,
2013-06-07 16:00:00,83.1,54.0,30.07,NW,315,6.7,6.9,37,0.00,,,0.00,open2300-1.11,2013-06-07 23:00:00,
2013-06-07 16:10:00,83.8,54.7,30.07,North,0,0.0,7.8,37,0.00,,,0.00,open2300-1.11,2013-06-07 23:10:00,
2013-06-07 16:21:00,83.8,54.7,30.07,North,0,5.4,7.8,37,0.00,,,0.00,open2300-1.11,2013-06-07 23:21:00,
2013-06-07 16:30:00,83.1,54.0,30.07,NNW,337,0.0,5.4,37,0.00,,,0.00,open2300-1.11,2013-06-07 23:30:00,
2013-06-07 16:40:00,82.2,56.2,30.07,West,270,4.7,11.4,41,0.00,,,0.00,open2300-1.11,2013-06-07 23:40:00,
2013-06-07 17:00:00,81.1,55.8,30.07,WNW,292,6.9,11.0,42,0.00,,,0.00,open2300-1.11,2013-06-08 00:00:00,
2013-06-07 17:10:00,80.8,56.1,30.07,NNW,337,4.2,7.2,43,0.00,,,0.00,open2300-1.11,2013-06-08 00:10:00,
2013-06-07 17:20:00,80.1,56.1,30.07,NW,315,6.9,8.3,44,0.00,,,0.00,open2300-1.11,2013-06-08 00:20:00,
2013-06-07 17:30:00,79.7,56.4,30.07,North,0,7.4,9.2,45,0.00,,,0.00,open2300-1.11,2013-06-08 00:30:00,
2013-06-07 17:41:00,78.8,57.4,30.07,NW,315,7.8,10.1,48,0.00,,,0.00,open2300-1.11,2013-06-08 00:41:00,
2013-06-07 17:50:00,78.4,57.7,30.06,North,0,6.5,7.8,49,0.00,,,0.00,open2300-1.11,2013-06-08 00:50:00,
2013-06-07 18:00:00,78.4,57.7,30.07,NNW,337,8.3,11.4,49,0.00,,,0.00,open2300-1.11,2013-06-08 01:00:00,
2013-06-07 18:10:00,78.6,57.9,30.07,West,270,6.7,9.8,49,0.00,,,0.00,open2300-1.11,2013-06-08 01:10:00,
2013-06-07 18:20:00,78.6,57.9,30.07,NNW,337,5.6,9.8,49,0.00,,,0.00,open2300-1.11,2013-06-08 01:20:00,
2013-06-07 18:30:00,78.4,58.3,30.06,NNW,337,6.5,7.8,50,0.00,,,0.00,open2300-1.11,2013-06-08 01:30:00,
2013-06-07 18:50:00,77.5,58.0,30.06,NNW,337,9.6,9.6,51,0.00,,,0.00,open2300-1.11,2013-06-08 01:50:00,
2013-06-07 19:00:00,77.5,58.0,30.06,WNW,292,2.7,9.6,51,0.00,,,0.00,open2300-1.11,2013-06-08 02:00:00,
2013-06-07 19:10:00,176.5,99.9,30.06,WNW,292,0.0,0.0,110,0.00,,,0.00,open2300-1.11,2013-06-08 02:10:00,
2013-06-07 19:20:00,77.0,99.9,30.07,NW,315,8.5,114.1,110,0.00,,,0.00,open2300-1.11,2013-06-08 02:20:00,
2013-06-07 19:30:00,76.8,57.9,30.07,NNW,337,6.9,13.0,52,0.00,,,0.00,open2300-1.11,2013-06-08 02:30:00,
2013-06-07 19:40:00,75.7,57.4,30.07,North,0,3.6,8.9,53,0.00,,,0.00,open2300-1.11,2013-06-08 02:40:00,
2013-06-07 19:50:00,75.0,56.2,30.07,NNW,337,8.1,11.4,52,0.00,,,0.00,open2300-1.11,2013-06-08 02:50:00,
2013-06-07 20:00:00,177.6,99.9,30.08,NNW,337,0.0,0.0,110,0.00,,,0.00,open2300-1.11,2013-06-08 03:00:00,
2013-06-07 20:10:00,72.1,99.9,30.08,NW,315,7.2,114.1,110,0.00,,,0.00,open2300-1.11,2013-06-08 03:10:00,
2013-06-07 20:20:00,71.2,54.7,30.08,NNW,337,6.5,13.2,56,0.00,,,0.00,open2300-1.11,2013-06-08 03:20:00,
2013-06-07 20:40:00,69.1,53.7,30.08,NW,315,6.9,8.1,58,0.00,,,0.00,open2300-1.11,2013-06-08 03:40:00,
2013-06-07 20:50:00,67.8,53.0,30.08,NNW,337,5.4,8.5,59,0.00,,,0.00,open2300-1.11,2013-06-08 03:50:00,
2013-06-07 21:00:00,67.1,52.8,30.08,West,270,4.7,7.2,60,0.00,,,0.00,open2300-1.11,2013-06-08 04:00:00,
2013-06-07 21:10:00,66.0,52.2,30.08,WNW,292,4.9,7.4,61,0.00,,,0.00,open2300-1.11,2013-06-08 04:10:00,
2013-06-07 21:20:00,66.0,52.2,30.08,NNW,337,5.8,8.1,61,0.00,,,0.00,open2300-1.11,2013-06-08 04:20:00,
2013-06-07 21:30:00,65.5,51.3,30.08,NNW,337,7.2,7.2,60,0.00,,,0.00,open2300-1.11,2013-06-08 04:30:00,
2013-06-07 21:40:00,64.9,51.1,30.09,NW,315,5.6,7.8,61,0.00,,,0.00,open2300-1.11,2013-06-08 04:40:00,
2013-06-07 21:50:00,64.8,51.0,30.10,WNW,292,0.0,5.6,61,0.00,,,0.00,open2300-1.11,2013-06-08 04:50:00,
2013-06-07 22:00:00,64.2,51.3,30.10,NW,315,0.0,3.4,63,0.00,,,0.00,open2300-1.11,2013-06-08 05:00:00,
2013-06-07 22:10:00,63.7,51.2,30.10,NW,315,5.6,8.1,64,0.00,,,0.00,open2300-1.11,2013-06-08 05:10:00,
2013-06-07 22:20:00,63.1,50.7,30.10,NW,315,0.0,6.3,64,0.00,,,0.00,open2300-1.11,2013-06-08 05:20:00,
2013-06-07 22:30:00,62.6,51.0,30.10,NW,315,7.2,7.8,66,0.00,,,0.00,open2300-1.11,2013-06-08 05:30:00,
2013-06-07 22:40:00,62.4,51.3,30.11,NNW,337,6.3,7.2,67,0.00,,,0.00,open2300-1.11,2013-06-08 05:40:00,
2013-06-07 22:50:00,61.7,51.1,30.11,NW,315,1.8,8.9,68,0.00,,,0.00,open2300-1.11,2013-06-08 05:50:00,
2013-06-07 23:00:00,61.2,51.0,30.12,NNW,337,2.9,7.4,69,0.00,,,0.00,open2300-1.11,2013-06-08 06:00:00,
2013-06-07 23:10:00,61.0,50.8,30.12,NNW,337,0.0,8.5,69,0.00,,,0.00,open2300-1.11,2013-06-08 06:10:00,
2013-06-07 23:20:00,60.6,50.9,30.12,NNW,337,1.8,3.6,70,0.00,,,0.00,open2300-1.11,2013-06-08 06:20:00,
2013-06-07 23:30:00,60.1,50.7,30.13,WNW,292,0.0,5.8,71,0.00,,,0.00,open2300-1.11,2013-06-08 06:30:00,
2013-06-07 23:40:00,59.5,50.5,30.13,NW,315,7.2,7.6,72,0.00,,,0.00,open2300-1.11,2013-06-08 06:40:00,
2013-06-07 23:50:00,59.2,50.2,30.13,NNW,337,0.0,8.1,72,0.00,,,0.00,open2300-1.11,2013-06-08 06:50:00,